Time;durP1;ratioP1;P1;durP2;ratioP2;P2;SDS_P1;SDS_P2;PMS_P1;PMS_P2;Temp;Humidity;BMP_temperature;BMP_pressure;BME280_temperature;BME280_humidity;BME280_pressure;Samples;Min_cycle;Max_cycle;Signal;HPM_P1;HPM_P2
2023/08/13 00:01:24;;;;;;;3.90;2.60;;;;;;;23.14;78.95;100549.00;5089875;28;20424;-62
2023/08/13 00:03:49;;;;;;;3.77;2.57;;;;;;;23.13;78.58;100556.81;5091574;28;20243;-61
2023/08/13 00:06:15;;;;;;;4.47;2.60;;;;;;;23.12;79.00;100552.28;5071508;28;20371;-61
2023/08/13 00:08:40;;;;;;;3.90;3.10;;;;;;;23.13;78.77;100541.59;5091005;27;20193;-62
2023/08/13 00:11:11;;;;;;;4.87;2.90;;;;;;;23.13;78.68;100544.47;5076160;28;20190;-62
2023/08/13 00:13:37;;;;;;;3.47;2.40;;;;;;;23.13;78.48;100548.16;5089520;28;20178;-62
2023/08/13 00:16:02;;;;;;;3.67;2.60;;;;;;;23.13;78.71;100541.59;5093170;28;20791;-63
2023/08/13 00:18:29;;;;;;;5.33;3.00;;;;;;;23.13;78.47;100541.59;5109545;28;20471;-62
2023/08/13 00:20:54;;;;;;;3.43;2.80;;;;;;;23.13;78.66;100539.53;5109909;28;20182;-62
2023/08/13 00:23:20;;;;;;;4.50;2.77;;;;;;;23.13;78.52;100538.72;5096272;28;20474;-62
2023/08/13 00:25:45;;;;;;;4.50;2.77;;;;;;;23.13;78.44;100544.47;5109553;28;20177;-63
2023/08/13 00:28:11;;;;;;;4.43;3.13;;;;;;;23.12;78.32;100537.88;5102352;28;20198;-61
2023/08/13 00:30:36;;;;;;;4.70;3.27;;;;;;;23.13;78.52;100530.88;5089035;28;20167;-62
2023/08/13 00:33:01;;;;;;;5.27;3.03;;;;;;;23.12;78.49;100532.13;5088093;28;20544;-62
2023/08/13 00:35:27;;;;;;;4.20;3.10;;;;;;;23.12;78.38;100532.13;5090452;28;20525;-63
2023/08/13 00:37:52;;;;;;;3.87;2.70;;;;;;;23.12;78.11;100528.41;5087959;28;20596;-62
2023/08/13 00:40:18;;;;;;;5.23;3.03;;;;;;;23.12;78.14;100529.25;5090248;28;20911;-62
2023/08/13 00:42:43;;;;;;;3.70;2.77;;;;;;;23.12;78.24;100532.13;5089969;28;20536;-62
2023/08/13 00:45:09;;;;;;;5.60;3.20;;;;;;;23.12;78.13;100523.47;5087432;28;20171;-62
2023/08/13 00:47:35;;;;;;;4.50;2.70;;;;;;;23.12;78.12;100520.59;5089509;28;20197;-63
2023/08/13 00:50:03;;;;;;;3.03;2.43;;;;;;;23.12;78.45;100529.25;5078320;28;21064;-61
2023/08/13 00:52:28;;;;;;;3.70;2.77;;;;;;;23.12;78.01;100529.25;5088775;28;20423;-62
2023/08/13 00:54:54;;;;;;;3.53;2.50;;;;;;;23.12;78.11;100532.13;5101522;28;20975;-62
2023/08/13 00:57:19;;;;;;;4.60;3.00;;;;;;;23.12;78.18;100539.94;5107395;28;20222;-62
2023/08/13 00:59:45;;;;;;;5.70;2.80;;;;;;;23.12;77.96;100534.16;5103468;28;20182;-62
2023/08/13 01:02:10;;;;;;;5.20;2.70;;;;;;;23.12;78.11;100525.53;5108898;28;20185;-63
2023/08/13 01:04:36;;;;;;;3.83;2.80;;;;;;;23.13;78.06;100538.72;5101814;28;20246;-62
2023/08/13 01:07:23;;;;;;;6.33;2.80;;;;;;;23.12;78.13;100540.75;5092371;28;20231;-61
2023/08/13 01:10:04;;;;;;;4.43;3.00;;;;;;;23.11;78.14;100536.25;5092224;28;20184;-63
2023/08/13 01:12:50;;;;;;;4.70;2.60;;;;;;;23.11;77.86;100536.25;5091948;28;20469;-63
2023/08/13 01:15:45;;;;;;;3.20;2.33;;;;;;;23.11;78.13;100536.25;5089307;28;20483;-62
2023/08/13 01:18:10;;;;;;;3.20;2.50;;;;;;;23.12;78.01;100555.16;5070559;28;20484;-62
2023/08/13 01:20:37;;;;;;;3.80;2.33;;;;;;;23.11;78.28;100544.88;5085009;28;20844;-62
2023/08/13 01:23:03;;;;;;;3.20;2.50;;;;;;;23.12;78.01;100554.31;5086086;28;20837;-62
2023/08/13 01:25:29;;;;;;;3.23;2.50;;;;;;;23.12;77.96;100545.69;5107948;28;20411;-62
2023/08/13 01:28:25;;;;;;;3.50;2.63;;;;;;;23.11;78.31;100550.63;5103707;28;20181;-62
2023/08/13 01:31:11;;;;;;;4.63;2.57;;;;;;;23.11;78.27;100550.63;5087265;28;20167;-62
2023/08/13 01:33:37;;;;;;;5.63;3.03;;;;;;;23.11;77.96;100547.75;5104348;28;20425;-61
2023/08/13 01:36:07;;;;;;;3.30;2.50;;;;;;;23.10;77.94;100543.25;5104818;28;20460;-62
2023/08/13 01:38:32;;;;;;;4.27;2.60;;;;;;;23.11;77.66;100553.53;5107578;28;20178;-62
2023/08/13 01:41:01;;;;;;;3.37;2.30;;;;;;;23.11;77.86;100549.81;5085790;28;20473;-62
2023/08/13 01:43:27;;;;;;;5.43;2.83;;;;;;;23.11;77.62;100550.63;5089791;28;20711;-63
2023/08/13 01:45:52;;;;;;;3.40;2.30;;;;;;;23.11;77.83;100541.16;5104162;28;20432;-62
2023/08/13 01:48:18;;;;;;;3.70;2.47;;;;;;;23.11;77.77;100538.28;5108457;28;20680;-63
2023/08/13 01:50:43;;;;;;;3.40;2.50;;;;;;;23.11;77.82;100541.16;5108393;28;20536;-62
2023/08/13 01:53:08;;;;;;;4.10;2.80;;;;;;;23.10;77.89;100537.47;5108331;28;20177;-61
2023/08/13 01:55:34;;;;;;;5.00;2.90;;;;;;;23.10;77.77;100537.47;5100813;28;20179;-62
2023/08/13 01:58:00;;;;;;;3.83;2.43;;;;;;;23.11;77.88;100538.28;5088087;28;20197;-63
2023/08/13 02:00:25;;;;;;;3.47;2.43;;;;;;;23.10;77.86;100543.25;5091579;28;20189;-62
2023/08/13 02:02:50;;;;;;;3.60;2.73;;;;;;;23.10;78.07;100546.13;5073674;28;20668;-62
2023/08/13 02:05:16;;;;;;;5.03;2.70;;;;;;;23.10;77.76;100531.72;5111396;28;20981;-62
2023/08/13 02:07:41;;;;;;;5.37;3.40;;;;;;;23.10;77.48;100534.59;5112579;28;20885;-62
2023/08/13 02:10:07;;;;;;;4.00;2.70;;;;;;;23.09;77.70;100535.81;5105513;28;20182;-61
2023/08/13 02:12:32;;;;;;;3.70;2.80;;;;;;;23.11;77.91;100532.53;5092332;28;20163;-63
2023/08/13 02:14:58;;;;;;;3.57;2.37;;;;;;;23.10;77.84;100528.84;5093612;28;20618;-61
2023/08/13 02:17:23;;;;;;;3.80;2.57;;;;;;;23.10;77.50;100531.72;5111919;28;20300;-62
2023/08/13 02:19:49;;;;;;;5.40;2.50;;;;;;;23.10;77.62;100533.75;5105756;28;20177;-62
2023/08/13 02:22:14;;;;;;;3.20;2.40;;;;;;;23.10;77.57;100528.00;5111898;28;20182;-62
2023/08/13 02:24:40;;;;;;;3.60;2.60;;;;;;;23.10;77.69;100537.47;5108393;28;20296;-62
2023/08/13 02:27:05;;;;;;;7.60;2.83;;;;;;;23.09;77.69;100535.81;5090664;28;20178;-62
2023/08/13 02:29:31;;;;;;;3.80;2.70;;;;;;;23.10;77.62;100536.63;5095661;28;20161;-61
2023/08/13 02:31:56;;;;;;;3.90;2.60;;;;;;;23.10;77.88;100542.41;5097503;28;20252;-62
2023/08/13 02:34:22;;;;;;;3.27;2.30;;;;;;;23.09;77.64;100547.31;5090428;28;20248;-63
2023/08/13 02:36:48;;;;;;;3.33;2.47;;;;;;;23.10;77.65;100543.25;5090477;28;20185;-61
2023/08/13 02:39:13;;;;;;;4.23;2.40;;;;;;;23.10;77.77;100542.41;5090988;28;20428;-62
2023/08/13 02:41:39;;;;;;;3.40;2.67;;;;;;;23.09;77.78;100544.44;5094028;28;20190;-62
2023/08/13 02:44:04;;;;;;;3.80;2.63;;;;;;;23.09;77.55;100540.75;5079572;28;20201;-63
2023/08/13 02:46:30;;;;;;;4.40;2.80;;;;;;;23.10;77.76;100542.41;5111664;28;20184;-62
2023/08/13 02:48:55;;;;;;;5.13;2.60;;;;;;;23.09;77.58;100530.03;5111367;28;20445;-63
2023/08/13 02:51:21;;;;;;;2.40;1.60;;;;;;;23.09;77.77;100535.81;5108567;28;20185;-63
2023/08/13 02:53:46;;;;;;;4.10;2.87;;;;;;;23.09;77.61;100544.44;5091056;28;20198;-63
2023/08/13 02:56:12;;;;;;;4.03;2.53;;;;;;;23.09;77.41;100535.81;5108376;28;20181;-62
2023/08/13 02:58:37;;;;;;;3.63;2.53;;;;;;;23.10;77.44;100531.72;5093486;28;20174;-63
2023/08/13 03:01:03;;;;;;;4.57;2.60;;;;;;;23.09;77.78;100530.03;5093429;28;20213;-63
2023/08/13 03:03:28;;;;;;;5.20;2.77;;;;;;;23.10;77.56;100528.00;5111666;28;20186;-63
2023/08/13 03:05:54;;;;;;;4.70;2.67;;;;;;;23.09;77.55;100530.03;5093061;28;20184;-61
2023/08/13 03:08:19;;;;;;;3.40;2.50;;;;;;;23.10;77.66;100540.34;5111162;28;20174;-63
2023/08/13 03:10:45;;;;;;;3.20;2.43;;;;;;;23.09;77.64;100535.81;5104063;28;20193;-62
2023/08/13 03:13:10;;;;;;;4.77;2.20;;;;;;;23.09;77.58;100530.03;5090151;28;20165;-62
2023/08/13 03:15:36;;;;;;;3.40;2.50;;;;;;;23.09;77.81;100530.03;5090444;28;20183;-62
2023/08/13 03:18:01;;;;;;;3.60;2.80;;;;;;;23.08;77.76;100522.63;5109779;28;20234;-62
2023/08/13 03:20:26;;;;;;;4.07;2.17;;;;;;;23.08;77.62;100537.03;5109710;28;20239;-62
2023/08/13 03:22:52;;;;;;;4.30;2.83;;;;;;;23.09;77.60;100529.25;5109409;28;20352;-63
2023/08/13 03:25:17;;;;;;;4.13;2.43;;;;;;;23.09;77.62;100524.28;5104375;28;20213;-62
2023/08/13 03:27:43;;;;;;;2.57;1.87;;;;;;;23.08;77.48;100528.41;5089388;28;20174;-62
2023/08/13 03:30:08;;;;;;;3.67;2.43;;;;;;;23.09;77.61;100530.03;5089230;28;20175;-62
2023/08/13 03:32:35;;;;;;;3.13;2.20;;;;;;;23.09;77.76;100523.47;5089510;28;20198;-61
2023/08/13 03:35:01;;;;;;;3.70;2.27;;;;;;;23.08;77.66;100522.63;5092844;28;20266;-63
2023/08/13 03:37:26;;;;;;;4.20;2.57;;;;;;;23.09;77.58;100523.47;5090384;28;20412;-63
2023/08/13 03:39:51;;;;;;;3.83;2.00;;;;;;;23.08;77.62;100519.75;5098278;28;20189;-63
2023/08/13 03:42:17;;;;;;;3.47;2.47;;;;;;;23.08;77.47;100514.00;5108004;28;20258;-62
2023/08/13 03:44:43;;;;;;;2.93;2.03;;;;;;;23.08;77.37;100516.88;5106688;28;20205;-61
2023/08/13 03:47:08;;;;;;;2.97;2.30;;;;;;;23.08;77.44;100525.53;5108165;28;20165;-62
2023/08/13 03:49:34;;;;;;;3.57;2.30;;;;;;;23.08;77.41;100527.59;5100524;28;20239;-61
2023/08/13 03:51:59;;;;;;;3.67;2.30;;;;;;;23.08;77.41;100527.59;5107392;28;20635;-61
2023/08/13 03:54:25;;;;;;;3.73;2.37;;;;;;;23.09;77.64;100529.25;5088984;28;20185;-62
2023/08/13 03:56:50;;;;;;;2.93;2.00;;;;;;;23.07;77.46;100523.03;5089566;28;20181;-62
2023/08/13 03:59:16;;;;;;;3.33;2.67;;;;;;;23.07;77.50;100532.53;5091730;28;20236;-62
2023/08/13 04:01:41;;;;;;;5.50;2.20;;;;;;;23.07;77.45;100532.53;5089154;28;20170;-62
2023/08/13 04:04:07;;;;;;;3.50;2.43;;;;;;;23.07;77.55;100515.22;5101771;28;20288;-62
2023/08/13 04:06:32;;;;;;;3.40;2.50;;;;;;;23.07;77.55;100521.00;5109707;28;20181;-62
2023/08/13 04:08:58;;;;;;;3.90;2.20;;;;;;;23.07;77.36;100523.03;5110165;28;20174;-63
2023/08/13 04:11:23;;;;;;;2.90;2.10;;;;;;;23.07;77.44;100523.88;5108122;28;20203;-62
2023/08/13 04:13:48;;;;;;;2.67;2.07;;;;;;;23.07;77.31;100520.16;5091716;28;20171;-62
2023/08/13 04:16:14;;;;;;;3.80;2.50;;;;;;;23.08;77.40;100521.84;5096635;28;20170;-62
2023/08/13 04:18:39;;;;;;;3.60;2.20;;;;;;;23.07;77.07;100521.00;5102466;28;20226;-62
2023/08/13 04:21:05;;;;;;;7.73;2.80;;;;;;;23.08;77.20;100533.34;5110257;28;20182;-62
2023/08/13 04:23:30;;;;;;;3.47;2.10;;;;;;;23.07;77.58;100521.00;5105266;28;20205;-63
2023/08/13 04:25:56;;;;;;;4.00;2.70;;;;;;;23.06;77.41;100516.47;5088284;28;20255;-61
2023/08/13 04:28:21;;;;;;;3.70;2.40;;;;;;;23.06;77.26;100525.13;5089734;28;20186;-62
2023/08/13 04:30:47;;;;;;;3.30;2.23;;;;;;;23.06;77.64;100519.34;5086297;28;20220;-62
2023/08/13 04:33:12;;;;;;;2.70;1.80;;;;;;;23.05;77.36;100517.72;5090003;28;20194;-62
2023/08/13 04:35:37;;;;;;;5.13;2.50;;;;;;;23.06;77.63;100522.22;5088168;28;20159;-63
2023/08/13 04:38:03;;;;;;;4.57;2.40;;;;;;;23.06;77.38;100510.72;5089368;28;20630;-62
2023/08/13 04:40:29;;;;;;;3.63;2.37;;;;;;;23.07;77.35;100508.63;5077724;28;20914;-62
2023/08/13 04:42:54;;;;;;;4.00;2.10;;;;;;;23.07;77.57;100521.00;5087267;28;20557;-62
2023/08/13 04:45:20;;;;;;;2.60;1.93;;;;;;;23.06;77.38;100516.47;5109244;28;20536;-62
2023/08/13 04:47:45;;;;;;;6.07;2.60;;;;;;;23.06;77.46;100513.59;5109389;28;20301;-63
2023/08/13 04:50:11;;;;;;;5.13;2.77;;;;;;;23.06;77.53;100522.22;5090441;28;20206;-62
2023/08/13 04:52:36;;;;;;;4.67;2.13;;;;;;;23.05;77.65;100529.22;5075920;28;20189;-62
2023/08/13 04:55:02;;;;;;;3.93;1.90;;;;;;;23.05;77.71;100526.34;5096734;28;20170;-62
2023/08/13 04:57:27;;;;;;;3.23;1.97;;;;;;;23.06;77.74;100533.75;5109307;28;20208;-62
2023/08/13 04:59:52;;;;;;;4.93;2.27;;;;;;;23.05;77.85;100535.00;5108420;28;20601;-61
2023/08/13 05:02:18;;;;;;;3.07;2.10;;;;;;;23.05;77.54;100534.16;5073167;28;20530;-62
2023/08/13 05:04:43;;;;;;;3.13;2.20;;;;;;;23.04;77.58;100533.34;5088736;28;20249;-62
2023/08/13 05:07:09;;;;;;;3.17;2.20;;;;;;;23.05;77.50;100526.34;5089993;28;20673;-62
2023/08/13 05:09:34;;;;;;;3.90;2.27;;;;;;;23.04;77.81;100516.06;5088433;28;20173;-62
2023/08/13 05:12:00;;;;;;;3.93;2.20;;;;;;;23.06;77.55;100536.63;5089444;28;20193;-62
2023/08/13 05:14:26;;;;;;;4.00;2.30;;;;;;;23.05;77.56;100535.00;5087535;28;20166;-62
2023/08/13 05:16:54;;;;;;;3.37;2.27;;;;;;;23.05;77.40;100537.88;5087209;28;20591;-63
2023/08/13 05:19:19;;;;;;;2.87;2.00;;;;;;;23.05;77.10;100535.00;5098547;28;20201;-61
2023/08/13 05:21:44;;;;;;;3.20;2.00;;;;;;;23.05;77.47;100532.09;5098206;28;20444;-62
2023/08/13 05:24:10;;;;;;;3.80;2.00;;;;;;;23.04;77.59;100535.38;5102265;28;20209;-62
2023/08/13 05:26:35;;;;;;;4.50;2.43;;;;;;;23.05;77.48;100522.63;5108733;28;20165;-62
2023/08/13 05:29:01;;;;;;;2.47;1.90;;;;;;;23.05;77.29;100528.41;5108757;28;20162;-62
2023/08/13 05:31:26;;;;;;;2.30;1.87;;;;;;;23.05;77.38;100525.50;5095757;28;20186;-62
2023/08/13 05:33:53;;;;;;;2.47;1.87;;;;;;;23.06;77.63;100530.88;5090474;28;20244;-62
2023/08/13 05:36:19;;;;;;;2.67;1.77;;;;;;;23.05;77.69;100528.41;5087738;28;20174;-62
2023/08/13 05:38:44;;;;;;;2.70;2.17;;;;;;;23.04;77.42;100533.34;5090870;28;20516;-62
2023/08/13 05:41:10;;;;;;;2.83;1.90;;;;;;;23.05;77.65;100539.91;5088235;28;20743;-63
2023/08/13 05:43:35;;;;;;;3.20;2.37;;;;;;;23.04;77.51;100539.09;5090252;28;20937;-62
2023/08/13 05:46:01;;;;;;;3.47;2.10;;;;;;;23.05;77.40;100540.75;5097998;28;20554;-62
2023/08/13 05:48:26;;;;;;;2.67;1.93;;;;;;;23.06;77.21;100539.50;5075142;28;20581;-62
2023/08/13 05:50:51;;;;;;;2.97;2.00;;;;;;;23.05;77.53;100537.88;5104945;28;20870;-62
2023/08/13 05:53:17;;;;;;;2.83;1.70;;;;;;;23.04;77.09;100533.34;5101047;28;20178;-62
2023/08/13 05:55:42;;;;;;;2.53;1.97;;;;;;;23.05;77.53;100529.22;5101706;28;20177;-62
2023/08/13 05:58:08;;;;;;;3.30;1.83;;;;;;;23.05;77.00;100526.34;5108454;28;20223;-62
2023/08/13 06:00:33;;;;;;;4.40;2.00;;;;;;;23.04;77.44;100533.34;5108639;28;20188;-62
2023/08/13 06:02:59;;;;;;;2.40;1.90;;;;;;;23.06;77.57;100545.28;5105778;28;20619;-62
2023/08/13 06:05:24;;;;;;;2.57;1.87;;;;;;;23.06;77.57;100551.03;5088469;28;20185;-62
2023/08/13 06:07:50;;;;;;;3.60;2.10;;;;;;;23.05;77.43;100551.44;5088948;28;20190;-63
2023/08/13 06:10:15;;;;;;;2.17;1.67;;;;;;;23.05;77.62;100545.66;5070796;28;20186;-62
2023/08/13 06:12:41;;;;;;;3.50;1.97;;;;;;;23.05;77.66;100540.75;5088413;28;20265;-62
2023/08/13 06:15:06;;;;;;;4.70;2.23;;;;;;;23.06;77.65;100548.16;5088007;28;20187;-61
2023/08/13 06:17:32;;;;;;;3.90;2.30;;;;;;;23.04;77.60;100544.88;5107142;28;20233;-62
2023/08/13 06:20:00;;;;;;;2.67;1.90;;;;;;;23.04;77.57;100542.00;5097471;28;20183;-62
2023/08/13 06:22:25;;;;;;;3.03;2.20;;;;;;;23.02;77.43;100544.44;5090556;28;20197;-63
2023/08/13 06:24:50;;;;;;;2.57;1.90;;;;;;;23.01;77.45;100531.28;5106052;28;20455;-62
2023/08/13 06:27:16;;;;;;;2.47;1.77;;;;;;;23.00;77.66;100541.16;5108189;28;20239;-62
2023/08/13 06:29:41;;;;;;;4.17;2.50;;;;;;;23.01;78.03;100537.03;5104281;28;20186;-62
2023/08/13 06:32:07;;;;;;;7.43;2.67;;;;;;;23.03;78.38;100536.63;5090730;28;20194;-61
2023/08/13 06:34:32;;;;;;;3.90;2.13;;;;;;;23.05;78.02;100537.03;5107952;28;20170;-63
2023/08/13 06:36:58;;;;;;;2.93;2.20;;;;;;;23.04;78.37;100533.34;5102875;28;20611;-66
2023/08/13 06:39:24;;;;;;;6.80;2.40;;;;;;;23.04;78.05;100544.03;5071256;28;20190;-63
2023/08/13 06:41:49;;;;;;;4.77;2.50;;;;;;;23.04;78.50;100539.09;5087390;28;20186;-62
2023/08/13 06:44:19;;;;;;;7.40;3.10;;;;;;;23.07;78.72;100532.53;5103325;28;20860;-62
2023/08/13 06:46:47;;;;;;;4.60;2.20;;;;;;;23.09;79.17;100546.53;5086238;28;20186;-61
2023/08/13 06:49:13;;;;;;;14.00;2.97;;;;;;;23.10;79.73;100536.63;5094057;28;20446;-64
2023/08/13 06:51:38;;;;;;;9.83;2.53;;;;;;;23.08;79.97;100539.91;5091109;28;21183;-63
2023/08/13 06:54:05;;;;;;;5.10;3.10;;;;;;;23.09;79.28;100541.56;5093170;28;20186;-64
2023/08/13 06:56:30;;;;;;;5.70;2.80;;;;;;;23.10;79.56;100545.28;5090856;28;20178;-63
2023/08/13 06:58:56;;;;;;;7.30;3.20;;;;;;;23.09;79.68;100540.75;5101612;28;20458;-63
2023/08/13 07:01:22;;;;;;;4.67;2.67;;;;;;;23.10;79.88;100542.41;5111043;28;20178;-64
2023/08/13 07:03:47;;;;;;;4.23;2.70;;;;;;;23.09;80.05;100535.81;5110355;28;20439;-63
2023/08/13 07:06:13;;;;;;;8.07;3.20;;;;;;;23.09;80.17;100538.69;5086668;28;20174;-62
2023/08/13 07:08:38;;;;;;;8.90;2.87;;;;;;;23.08;80.30;100534.16;5097587;28;20182;-64
2023/08/13 07:11:03;;;;;;;7.50;2.10;;;;;;;23.08;79.99;100539.91;5111294;28;20170;-64
2023/08/13 07:13:29;;;;;;;3.50;2.20;;;;;;;23.09;80.31;100535.81;5106454;28;20181;-62
2023/08/13 07:15:55;;;;;;;7.27;2.80;;;;;;;23.09;80.05;100535.00;5110289;28;20196;-63
2023/08/13 07:18:21;;;;;;;3.90;2.67;;;;;;;23.10;80.20;100533.75;5102623;28;20222;-64
2023/08/13 07:20:46;;;;;;;7.07;3.00;;;;;;;23.09;80.51;100541.56;5106927;28;20260;-63
2023/08/13 07:23:12;;;;;;;4.40;2.47;;;;;;;23.11;80.61;100535.41;5110474;28;20493;-64
2023/08/13 07:25:37;;;;;;;10.40;4.40;;;;;;;23.11;80.71;100530.47;5110933;28;20266;-63
2023/08/13 07:28:06;;;;;;;8.13;3.00;;;;;;;23.11;80.70;100529.63;5098779;28;20676;-62
2023/08/13 07:30:31;;;;;;;5.60;3.03;;;;;;;23.13;81.63;100536.66;5089927;28;20204;-64
2023/08/13 07:32:56;;;;;;;9.20;2.67;;;;;;;23.13;81.69;100541.59;5105683;27;20421;-64
2023/08/13 07:35:22;;;;;;;8.23;3.33;;;;;;;23.13;81.31;100536.66;5080328;28;20182;-63
2023/08/13 07:37:47;;;;;;;4.97;2.83;;;;;;;23.14;81.12;100540.38;5089295;28;20158;-64
2023/08/13 07:40:13;;;;;;;4.80;2.50;;;;;;;23.15;81.05;100537.09;5090305;28;20248;-63
2023/08/13 07:42:40;;;;;;;5.20;3.10;;;;;;;23.15;80.99;100539.13;5083311;28;20186;-64
2023/08/13 07:45:06;;;;;;;5.40;3.37;;;;;;;23.14;80.78;100546.94;5089745;28;20223;-63
2023/08/13 07:47:32;;;;;;;6.00;2.93;;;;;;;23.15;80.68;100551.50;5110348;28;20500;-63
2023/08/13 07:49:58;;;;;;;9.27;3.13;;;;;;;23.14;80.96;100555.56;5110287;28;20467;-64
2023/08/13 07:52:23;;;;;;;9.33;2.90;;;;;;;23.15;80.68;100557.25;5106060;28;20439;-64
2023/08/13 07:54:49;;;;;;;5.23;2.90;;;;;;;23.15;80.73;100562.16;5109496;28;20178;-63
2023/08/13 07:57:15;;;;;;;4.60;2.67;;;;;;;23.14;80.76;100555.56;5102836;28;20186;-63
2023/08/13 07:59:40;;;;;;;6.60;3.20;;;;;;;23.14;80.83;100552.69;5087807;28;20285;-62
2023/08/13 08:02:06;;;;;;;5.13;2.87;;;;;;;23.13;80.84;100553.94;5090181;28;20688;-63
2023/08/13 08:04:31;;;;;;;5.07;2.90;;;;;;;23.14;80.46;100549.00;5088397;28;20205;-63
2023/08/13 08:06:57;;;;;;;8.53;2.70;;;;;;;23.14;80.71;100560.53;5090421;28;20903;-62
2023/08/13 08:09:22;;;;;;;3.97;2.40;;;;;;;23.13;80.28;100553.13;5087753;28;20721;-64
2023/08/13 08:11:47;;;;;;;4.30;2.43;;;;;;;23.12;80.75;100546.53;5087990;28;20159;-63
2023/08/13 08:14:13;;;;;;;5.67;2.63;;;;;;;23.13;80.57;100541.59;5102711;28;20178;-64
2023/08/13 08:16:38;;;;;;;7.73;2.63;;;;;;;23.12;80.31;100540.75;5106439;28;20182;-62
2023/08/13 08:19:04;;;;;;;6.17;2.90;;;;;;;23.13;80.27;100541.59;5106236;28;20516;-64
2023/08/13 08:21:31;;;;;;;4.73;2.80;;;;;;;23.13;80.36;100535.84;5125210;27;20164;-63
2023/08/13 08:23:56;;;;;;;4.57;2.83;;;;;;;23.14;80.07;100537.47;5129252;27;20197;-63
2023/08/13 08:26:22;;;;;;;7.57;3.00;;;;;;;23.14;79.83;100541.16;5119644;27;20481;-64
2023/08/13 08:28:47;;;;;;;5.53;2.67;;;;;;;23.14;79.88;100544.03;5100040;28;20689;-64
2023/08/13 08:31:13;;;;;;;4.10;2.50;;;;;;;23.14;80.01;100538.28;5093653;28;20273;-64
2023/08/13 08:33:38;;;;;;;4.43;2.63;;;;;;;23.15;79.86;100536.25;5118713;27;20179;-63
2023/08/13 08:36:04;;;;;;;3.27;2.30;;;;;;;23.15;80.01;100542.00;5090707;28;20182;-63
2023/08/13 08:38:29;;;;;;;4.70;2.70;;;;;;;23.14;79.69;100526.75;5109067;28;20169;-63
2023/08/13 08:40:54;;;;;;;4.50;2.60;;;;;;;23.15;79.96;100516.91;5095147;28;20182;-63
2023/08/13 08:43:20;;;;;;;4.90;2.60;;;;;;;23.15;79.76;100525.56;5068936;28;20194;-62
2023/08/13 08:45:45;;;;;;;6.13;2.40;;;;;;;23.16;79.45;100524.31;5104384;27;20184;-63
2023/08/13 08:48:11;;;;;;;4.70;2.90;;;;;;;23.18;79.26;100527.63;5068621;28;20183;-63
2023/08/13 08:50:37;;;;;;;4.50;2.90;;;;;;;23.18;79.51;100523.97;5098668;28;20716;-63
2023/08/13 08:53:03;;;;;;;4.70;2.87;;;;;;;23.17;79.09;100519.38;5086875;28;20259;-62
2023/08/13 08:55:28;;;;;;;3.90;2.50;;;;;;;23.17;79.38;100510.72;5094082;28;20173;-63
2023/08/13 08:57:54;;;;;;;5.80;2.30;;;;;;;23.16;79.67;100511.97;5107086;28;20404;-63
2023/08/13 09:00:20;;;;;;;3.20;2.40;;;;;;;23.16;79.41;100509.09;5107110;28;20231;-62
2023/08/13 09:02:45;;;;;;;4.10;2.20;;;;;;;23.17;79.75;100510.72;5103860;28;20178;-63
2023/08/13 09:05:11;;;;;;;4.50;2.67;;;;;;;23.17;79.34;100502.91;5089696;28;20356;-62
2023/08/13 09:07:38;;;;;;;4.30;2.63;;;;;;;23.16;79.49;100507.03;5106723;27;20212;-62
2023/08/13 09:10:04;;;;;;;4.30;2.13;;;;;;;23.17;79.44;100505.81;5079654;28;20178;-63
2023/08/13 09:12:36;;;;;;;3.80;2.60;;;;;;;23.17;79.36;100507.84;5118665;27;20434;-62
2023/08/13 09:15:05;;;;;;;5.77;3.03;;;;;;;23.17;79.21;100510.72;5129523;27;20166;-61
2023/08/13 09:17:30;;;;;;;3.50;2.40;;;;;;;23.16;79.18;100504.16;5104793;28;20554;-63
2023/08/13 09:19:56;;;;;;;3.60;2.47;;;;;;;23.17;79.40;100513.59;5089541;28;20423;-61
2023/08/13 09:22:21;;;;;;;5.97;2.60;;;;;;;23.16;79.00;100501.28;5089855;28;20183;-62
2023/08/13 09:24:48;;;;;;;6.87;2.30;;;;;;;23.16;78.73;100507.03;5105562;28;20202;-63
2023/08/13 09:27:14;;;;;;;5.00;2.43;;;;;;;23.18;78.37;100498.03;5106877;28;20197;-61
2023/08/13 09:29:39;;;;;;;2.90;2.30;;;;;;;23.17;79.11;100497.16;5089413;28;20936;-63
2023/08/13 09:32:05;;;;;;;2.80;2.07;;;;;;;23.16;78.63;100489.75;5107964;28;20644;-62
2023/08/13 09:34:31;;;;;;;3.83;2.50;;;;;;;23.18;78.61;100498.84;5104728;28;20188;-62
2023/08/13 09:36:57;;;;;;;5.20;2.83;;;;;;;23.17;78.89;100502.91;5086780;28;20269;-63
2023/08/13 09:39:23;;;;;;;4.80;2.63;;;;;;;23.15;78.77;100511.16;5106425;28;20219;-62
2023/08/13 09:41:49;;;;;;;4.13;2.40;;;;;;;23.15;78.88;100514.03;5090152;28;20167;-63
2023/08/13 09:44:15;;;;;;;3.10;2.37;;;;;;;23.16;78.52;100509.91;5087829;28;20950;-61
2023/08/13 09:46:40;;;;;;;4.30;2.30;;;;;;;23.17;78.72;100508.69;5072014;28;20436;-61
2023/08/13 09:49:09;;;;;;;3.70;2.17;;;;;;;23.16;78.38;100494.69;5089381;28;20273;-63
2023/08/13 09:51:34;;;;;;;4.60;2.67;;;;;;;23.17;78.25;100500.03;5089531;28;20629;-63
2023/08/13 09:54:09;;;;;;;6.10;2.07;;;;;;;23.17;77.87;100494.28;5086791;28;20512;-62
2023/08/13 09:56:36;;;;;;;6.87;2.70;;;;;;;23.17;78.50;100497.16;5085084;28;20586;-61
2023/08/13 09:59:02;;;;;;;3.13;2.17;;;;;;;23.17;77.77;100500.03;5068517;28;20436;-63
2023/08/13 10:01:27;;;;;;;4.50;2.33;;;;;;;23.17;77.74;100494.28;5087030;28;20466;-62
2023/08/13 10:03:53;;;;;;;3.37;2.37;;;;;;;23.16;77.72;100489.75;5072696;28;20216;-62
2023/08/13 10:06:18;;;;;;;4.83;2.47;;;;;;;23.17;77.54;100500.03;5108738;28;20173;-63
2023/08/13 10:08:44;;;;;;;3.00;2.10;;;;;;;23.16;77.31;100498.41;5108393;28;20162;-62
2023/08/13 10:11:09;;;;;;;3.00;2.30;;;;;;;23.16;77.28;100497.56;5093690;28;20186;-63
2023/08/13 10:13:34;;;;;;;4.03;2.27;;;;;;;23.17;77.69;100510.72;5069787;28;20281;-63
2023/08/13 10:16:00;;;;;;;4.40;2.30;;;;;;;23.16;77.17;100509.91;5088076;28;20159;-63
2023/08/13 10:18:28;;;;;;;2.50;1.80;;;;;;;23.15;77.28;100505.41;5052550;28;20234;-63
2023/08/13 10:20:53;;;;;;;3.73;1.67;;;;;;;23.16;77.29;100507.03;5100973;28;20260;-62
2023/08/13 10:23:19;;;;;;;3.37;2.20;;;;;;;23.15;77.54;100516.91;5110332;28;20882;-63
2023/08/13 10:25:44;;;;;;;3.00;1.90;;;;;;;23.16;77.50;100535.00;5075154;28;20174;-62
2023/08/13 10:28:23;;;;;;;3.20;2.30;;;;;;;23.15;77.60;100533.38;5093218;28;20174;-63
2023/08/13 10:30:48;;;;;;;3.80;2.07;;;;;;;23.14;77.63;100535.41;5091675;28;20162;-63
2023/08/13 10:33:14;;;;;;;3.70;2.50;;;;;;;23.14;77.12;100508.69;5091436;28;20476;-62
2023/08/13 10:35:40;;;;;;;3.80;2.07;;;;;;;23.15;77.18;100508.28;5094656;28;20255;-63
2023/08/13 10:38:06;;;;;;;4.57;2.57;;;;;;;23.15;77.24;100504.56;5107167;28;20280;-63
2023/08/13 10:40:31;;;;;;;3.40;2.00;;;;;;;23.15;77.47;100502.50;5104723;28;20576;-63
2023/08/13 10:42:57;;;;;;;3.20;2.10;;;;;;;23.14;77.51;100506.59;5106592;28;20440;-63
2023/08/13 10:45:28;;;;;;;3.30;2.00;;;;;;;23.14;77.49;100511.56;5071957;28;20186;-62
2023/08/13 10:47:58;;;;;;;3.73;2.40;;;;;;;23.15;77.62;100516.91;5090347;28;20424;-63
2023/08/13 10:50:40;;;;;;;3.57;2.27;;;;;;;23.14;77.67;100515.25;5088067;28;20439;-63
2023/08/13 10:53:27;;;;;;;3.30;1.87;;;;;;;23.15;77.59;100508.28;5093042;28;20429;-63
2023/08/13 10:55:54;;;;;;;2.90;2.07;;;;;;;23.15;77.60;100504.56;5105104;28;20454;-62
2023/08/13 10:58:35;;;;;;;3.23;2.20;;;;;;;23.15;77.81;100511.16;5101788;28;20919;-63
2023/08/13 11:01:10;;;;;;;5.07;2.30;;;;;;;23.16;77.34;100501.28;5111236;28;20814;-63
2023/08/13 11:03:52;;;;;;;4.83;2.00;;;;;;;23.16;77.34;100488.91;5111531;28;20482;-63
2023/08/13 11:06:22;;;;;;;3.00;2.10;;;;;;;23.15;77.53;100488.13;5088758;28;20803;-62
2023/08/13 11:08:47;;;;;;;2.90;1.60;;;;;;;23.16;77.38;100486.88;5091080;28;20422;-61
2023/08/13 11:11:13;;;;;;;4.30;2.30;;;;;;;23.15;77.61;100490.16;5090384;28;20770;-62
2023/08/13 11:13:39;;;;;;;4.70;2.13;;;;;;;23.16;77.27;100486.88;5104130;28;20211;-63
2023/08/13 11:16:05;;;;;;;3.07;1.97;;;;;;;23.17;77.36;100481.91;5090709;28;20793;-62
2023/08/13 11:18:30;;;;;;;3.17;2.10;;;;;;;23.17;77.38;100484.81;5090699;28;20837;-62
2023/08/13 11:20:56;;;;;;;4.23;2.33;;;;;;;23.17;77.50;100490.56;5107984;28;20633;-63